Time;durP1;ratioP1;P1;durP2;ratioP2;P2;SDS_P1;SDS_P2;PMS_P1;PMS_P2;Temp;Humidity;BMP_temperature;BMP_pressure;BME280_temperature;BME280_humidity;BME280_pressure;Samples;Min_cycle;Max_cycle;Signal;HPM_P1;HPM_P2
2021/08/04 00:00:26;;;;;;;580.15;450.30;;;;;;;;;;4946100;29;20020;-73
2021/08/04 00:02:53;;;;;;;580.53;447.10;;;;;;;;;;4945829;28;20020;-74
2021/08/04 00:05:20;;;;;;;574.92;440.50;;;;;;;;;;4946287;28;20015;-73
2021/08/04 00:07:46;;;;;;;572.20;434.52;;;;;;;;;;4948279;28;20031;-73
2021/08/04 00:10:12;;;;;;;583.10;448.83;;;;;;;;;;4946839;29;20122;-73
2021/08/04 00:12:38;;;;;;;573.78;435.95;;;;;;;;;;4945968;29;20480;-73
2021/08/04 00:15:04;;;;;;;576.78;441.35;;;;;;;;;;4926320;28;20043;-75
2021/08/04 00:17:30;;;;;;;573.72;434.98;;;;;;;;;;4943208;28;20107;-75
2021/08/04 00:19:56;;;;;;;573.92;432.75;;;;;;;;;;4946317;29;20039;-75
2021/08/04 00:22:22;;;;;;;558.53;418.58;;;;;;;;;;4943386;28;20446;-74
2021/08/04 00:24:48;;;;;;;558.63;421.85;;;;;;;;;;4979339;28;20035;-73
2021/08/04 00:27:14;;;;;;;560.30;421.00;;;;;;;;;;4931368;28;20050;-74
2021/08/04 00:29:40;;;;;;;560.85;416.48;;;;;;;;;;4947396;28;20117;-75
2021/08/04 00:32:06;;;;;;;558.45;414.25;;;;;;;;;;4949054;29;20081;-74
2021/08/04 00:34:32;;;;;;;576.08;435.38;;;;;;;;;;4949503;29;20020;-75
2021/08/04 00:36:58;;;;;;;570.20;425.48;;;;;;;;;;4949133;29;20489;-74
2021/08/04 00:39:24;;;;;;;566.72;425.08;;;;;;;;;;4949598;29;20314;-74
2021/08/04 00:41:50;;;;;;;569.72;423.45;;;;;;;;;;4947988;29;20031;-74
2021/08/04 00:44:16;;;;;;;564.67;413.45;;;;;;;;;;4932208;29;20556;-74
2021/08/04 00:46:44;;;;;;;569.33;417.50;;;;;;;;;;4948691;28;20039;-74
2021/08/04 00:49:13;;;;;;;570.08;424.10;;;;;;;;;;4948247;29;20094;-74
2021/08/04 00:51:39;;;;;;;578.10;423.23;;;;;;;;;;4947320;28;20066;-75
2021/08/04 00:54:07;;;;;;;578.85;427.65;;;;;;;;;;4948063;29;20293;-74
2021/08/04 00:56:33;;;;;;;573.03;419.25;;;;;;;;;;4945972;29;20020;-74
2021/08/04 00:58:59;;;;;;;583.22;429.55;;;;;;;;;;4946760;28;20019;-75
2021/08/04 01:01:27;;;;;;;579.50;426.63;;;;;;;;;;4945651;29;20035;-73
2021/08/04 01:03:56;;;;;;;584.25;431.98;;;;;;;;;;4946755;29;20345;-75
2021/08/04 01:06:26;;;;;;;576.80;422.38;;;;;;;;;;4946875;28;20392;-74
2021/08/04 01:08:54;;;;;;;581.08;426.98;;;;;;;;;;4944141;28;20028;-74
2021/08/04 01:11:21;;;;;;;581.42;422.75;;;;;;;;;;4950008;28;20011;-74
2021/08/04 01:13:48;;;;;;;571.78;418.25;;;;;;;;;;4946672;29;20038;-73
2021/08/04 01:16:17;;;;;;;574.75;419.55;;;;;;;;;;4945906;29;20492;-73
2021/08/04 01:18:49;;;;;;;576.63;419.67;;;;;;;;;;4948295;28;20106;-74
2021/08/04 01:21:16;;;;;;;579.53;423.40;;;;;;;;;;4929946;29;20011;-74
2021/08/04 01:23:44;;;;;;;563.45;410.50;;;;;;;;;;4947588;29;20085;-74
2021/08/04 01:26:26;;;;;;;578.15;426.67;;;;;;;;;;4947010;28;20039;-75
2021/08/04 01:28:55;;;;;;;574.60;420.05;;;;;;;;;;4946938;29;20318;-74
2021/08/04 01:31:29;;;;;;;576.78;423.27;;;;;;;;;;4947648;28;20032;-74
2021/08/04 01:33:55;;;;;;;565.60;411.63;;;;;;;;;;4948923;28;20024;-74
2021/08/04 01:36:22;;;;;;;575.45;416.00;;;;;;;;;;4943839;28;20020;-74
2021/08/04 01:38:48;;;;;;;570.40;412.92;;;;;;;;;;4947535;29;20039;-75
2021/08/04 01:41:15;;;;;;;574.10;417.13;;;;;;;;;;4946737;29;20066;-74
2021/08/04 01:43:42;;;;;;;576.47;420.08;;;;;;;;;;4948049;29;20019;-74
2021/08/04 01:46:09;;;;;;;580.17;417.35;;;;;;;;;;4947488;28;20035;-74
2021/08/04 01:48:37;;;;;;;570.58;410.52;;;;;;;;;;4945203;29;20034;-74
2021/08/04 01:51:04;;;;;;;574.25;410.23;;;;;;;;;;4942457;29;21167;-75
2021/08/04 01:53:30;;;;;;;581.55;422.65;;;;;;;;;;4947789;28;20023;-75
2021/08/04 01:55:57;;;;;;;582.08;414.23;;;;;;;;;;4947742;28;20449;-74
2021/08/04 01:58:23;;;;;;;578.08;415.35;;;;;;;;;;4946761;28;20034;-74
2021/08/04 02:00:49;;;;;;;572.00;411.25;;;;;;;;;;4952344;28;20026;-74
2021/08/04 02:03:15;;;;;;;585.40;419.00;;;;;;;;;;4949240;28;20349;-74
2021/08/04 02:05:41;;;;;;;562.00;399.58;;;;;;;;;;4947414;29;20035;-75
2021/08/04 02:08:13;;;;;;;565.63;399.95;;;;;;;;;;4946414;28;20054;-73
2021/08/04 02:11:00;;;;;;;583.10;416.98;;;;;;;;;;4946071;29;20026;-74
2021/08/04 02:13:31;;;;;;;555.33;393.77;;;;;;;;;;4938093;29;20085;-75
2021/08/04 02:16:01;;;;;;;578.10;408.25;;;;;;;;;;4942881;28;20122;-74
2021/08/04 02:18:30;;;;;;;584.85;411.90;;;;;;;;;;4945151;29;20027;-74
2021/08/04 02:20:57;;;;;;;580.85;415.05;;;;;;;;;;4929107;29;20474;-75
2021/08/04 02:23:25;;;;;;;579.90;418.00;;;;;;;;;;4945811;29;20043;-74
2021/08/04 02:25:54;;;;;;;569.53;408.17;;;;;;;;;;4938850;29;20089;-75
2021/08/04 02:28:23;;;;;;;578.83;408.80;;;;;;;;;;4943197;28;20081;-75
2021/08/04 02:30:49;;;;;;;588.97;417.15;;;;;;;;;;4948615;29;20519;-75
2021/08/04 02:33:16;;;;;;;583.72;414.60;;;;;;;;;;4952295;28;20035;-74
2021/08/04 02:35:42;;;;;;;595.75;427.88;;;;;;;;;;4950849;29;20063;-76
2021/08/04 02:38:08;;;;;;;587.95;416.65;;;;;;;;;;4950423;29;20070;-74
2021/08/04 02:40:34;;;;;;;595.88;428.80;;;;;;;;;;4949919;29;20027;-74
2021/08/04 02:43:00;;;;;;;564.75;402.73;;;;;;;;;;4950151;29;20653;-73
2021/08/04 02:45:26;;;;;;;563.78;399.20;;;;;;;;;;4950633;29;20031;-74
2021/08/04 02:47:52;;;;;;;581.90;409.58;;;;;;;;;;4950609;28;20027;-74
2021/08/04 02:50:19;;;;;;;572.38;405.42;;;;;;;;;;4948370;29;20526;-74
2021/08/04 02:52:47;;;;;;;575.75;410.08;;;;;;;;;;4949504;29;20051;-75
2021/08/04 02:55:12;;;;;;;560.47;395.88;;;;;;;;;;4930237;29;20036;-74
2021/08/04 02:57:39;;;;;;;592.53;424.55;;;;;;;;;;4948966;29;20027;-74
2021/08/04 03:00:05;;;;;;;590.60;410.88;;;;;;;;;;4949163;28;20023;-74
2021/08/04 03:02:31;;;;;;;543.30;374.15;;;;;;;;;;4930010;29;20024;-73
2021/08/04 03:04:57;;;;;;;563.28;392.23;;;;;;;;;;4948833;29;20039;-73
2021/08/04 03:07:23;;;;;;;585.50;409.15;;;;;;;;;;4941119;29;20373;-74
2021/08/04 03:09:49;;;;;;;564.63;391.08;;;;;;;;;;4948009;29;20110;-75
2021/08/04 03:12:15;;;;;;;592.35;410.25;;;;;;;;;;4949159;29;20040;-74
2021/08/04 03:14:41;;;;;;;626.83;451.33;;;;;;;;;;4943144;29;20062;-74
2021/08/04 03:17:07;;;;;;;623.55;433.42;;;;;;;;;;4949928;28;20110;-74
2021/08/04 03:19:33;;;;;;;616.97;427.38;;;;;;;;;;4948276;28;20098;-75
2021/08/04 03:21:59;;;;;;;623.78;433.90;;;;;;;;;;4932078;28;20031;-75
2021/08/04 03:24:25;;;;;;;548.38;368.52;;;;;;;;;;4949794;29;20016;-73
2021/08/04 03:26:51;;;;;;;557.08;377.83;;;;;;;;;;4949409;29;20441;-74
2021/08/04 03:29:16;;;;;;;559.75;386.13;;;;;;;;;;4947750;29;20487;-74
2021/08/04 03:31:42;;;;;;;567.42;381.85;;;;;;;;;;4949423;28;20019;-75
2021/08/04 03:34:08;;;;;;;641.55;437.77;;;;;;;;;;4949790;28;20074;-75
2021/08/04 03:36:34;;;;;;;643.55;432.77;;;;;;;;;;4949514;29;20074;-75
2021/08/04 03:39:00;;;;;;;553.05;370.27;;;;;;;;;;4938530;29;20023;-74
2021/08/04 03:41:26;;;;;;;649.60;437.48;;;;;;;;;;4934716;28;20220;-75
2021/08/04 03:43:52;;;;;;;545.63;357.90;;;;;;;;;;4949488;28;20030;-74
2021/08/04 03:46:18;;;;;;;553.70;364.33;;;;;;;;;;4931818;28;20031;-75
2021/08/04 03:48:44;;;;;;;577.20;392.70;;;;;;;;;;4948948;29;20027;-75
2021/08/04 03:51:10;;;;;;;623.08;429.45;;;;;;;;;;4931936;29;20027;-74
2021/08/04 03:53:36;;;;;;;665.90;458.48;;;;;;;;;;4948177;29;20024;-75
2021/08/04 03:56:02;;;;;;;542.33;355.88;;;;;;;;;;4947187;29;20090;-75
2021/08/04 03:58:28;;;;;;;547.22;361.95;;;;;;;;;;4947560;29;20033;-75
2021/08/04 04:00:54;;;;;;;546.08;363.25;;;;;;;;;;4949390;29;20021;-74
2021/08/04 04:03:20;;;;;;;558.38;371.25;;;;;;;;;;4947483;29;20598;-75
2021/08/04 04:05:46;;;;;;;604.05;408.83;;;;;;;;;;4949447;29;20046;-75
2021/08/04 04:08:13;;;;;;;569.17;380.05;;;;;;;;;;4948289;29;20549;-75
2021/08/04 04:10:39;;;;;;;569.03;383.30;;;;;;;;;;4948216;29;20552;-75
2021/08/04 04:13:05;;;;;;;662.45;449.85;;;;;;;;;;4948342;28;20039;-75
2021/08/04 04:15:31;;;;;;;542.75;359.75;;;;;;;;;;4930895;29;20455;-76
2021/08/04 04:17:57;;;;;;;548.25;366.65;;;;;;;;;;4931350;29;20058;-74
2021/08/04 04:20:22;;;;;;;548.65;365.40;;;;;;;;;;4948103;29;20031;-74
2021/08/04 04:22:48;;;;;;;554.58;363.63;;;;;;;;;;4938935;29;20035;-74
2021/08/04 04:25:16;;;;;;;555.80;367.27;;;;;;;;;;4947762;29;20027;-75
2021/08/04 04:27:42;;;;;;;567.53;388.45;;;;;;;;;;4948813;28;20035;-74
2021/08/04 04:30:09;;;;;;;561.80;381.33;;;;;;;;;;4948048;29;20054;-74
2021/08/04 04:32:35;;;;;;;562.95;377.17;;;;;;;;;;4948362;28;20024;-74
2021/08/04 04:35:01;;;;;;;563.85;379.00;;;;;;;;;;4948252;29;20031;-74
2021/08/04 04:37:27;;;;;;;579.95;379.10;;;;;;;;;;4947892;28;20437;-75
2021/08/04 04:39:53;;;;;;;606.85;402.77;;;;;;;;;;4948249;29;20026;-75
2021/08/04 04:42:19;;;;;;;564.35;377.98;;;;;;;;;;4945701;29;20119;-75
2021/08/04 04:44:45;;;;;;;605.58;397.02;;;;;;;;;;4947545;29;20062;-74
2021/08/04 04:47:11;;;;;;;601.65;400.17;;;;;;;;;;4947878;28;20347;-75
2021/08/04 04:49:37;;;;;;;662.85;452.70;;;;;;;;;;4949138;29;20035;-75
2021/08/04 04:52:03;;;;;;;541.00;360.65;;;;;;;;;;4947385;29;20047;-75
2021/08/04 04:54:29;;;;;;;545.33;359.55;;;;;;;;;;4947476;29;20107;-74
2021/08/04 04:56:55;;;;;;;555.08;367.08;;;;;;;;;;4930014;28;20106;-75
2021/08/04 04:59:21;;;;;;;564.65;379.77;;;;;;;;;;4946596;29;20342;-75
2021/08/04 05:01:47;;;;;;;556.92;372.17;;;;;;;;;;4932108;29;20331;-75
2021/08/04 05:04:13;;;;;;;571.08;382.05;;;;;;;;;;4947376;28;20039;-75
2021/08/04 05:06:39;;;;;;;562.67;379.33;;;;;;;;;;4947993;29;20070;-74
2021/08/04 05:09:04;;;;;;;576.15;385.40;;;;;;;;;;4946917;29;20023;-74
2021/08/04 05:11:30;;;;;;;595.53;409.65;;;;;;;;;;4947983;29;20023;-75
2021/08/04 05:13:56;;;;;;;565.75;381.70;;;;;;;;;;4947153;29;20031;-75
2021/08/04 05:16:22;;;;;;;580.60;393.50;;;;;;;;;;4948841;29;20023;-74
2021/08/04 05:18:48;;;;;;;628.10;438.52;;;;;;;;;;4929959;29;20051;-75
2021/08/04 05:21:14;;;;;;;668.65;463.55;;;;;;;;;;4944695;28;20609;-74
2021/08/04 05:23:40;;;;;;;542.15;367.92;;;;;;;;;;4945035;29;20090;-74
2021/08/04 05:26:06;;;;;;;545.67;380.00;;;;;;;;;;4946215;29;20031;-75
2021/08/04 05:28:32;;;;;;;543.47;375.83;;;;;;;;;;4930554;29;20015;-74
2021/08/04 05:30:58;;;;;;;540.40;368.80;;;;;;;;;;4947880;29;20102;-76
2021/08/04 05:33:24;;;;;;;542.97;380.92;;;;;;;;;;4925364;29;20126;-74
2021/08/04 05:35:50;;;;;;;544.55;376.80;;;;;;;;;;4944727;29;20049;-74
2021/08/04 05:38:16;;;;;;;545.03;387.88;;;;;;;;;;4944460;28;20035;-74
2021/08/04 05:40:43;;;;;;;545.88;387.75;;;;;;;;;;4948006;28;20034;-74
2021/08/04 05:43:09;;;;;;;543.10;380.52;;;;;;;;;;4946460;29;20130;-75
2021/08/04 05:45:36;;;;;;;546.45;383.17;;;;;;;;;;4944987;29;20537;-75
2021/08/04 05:48:02;;;;;;;550.92;391.50;;;;;;;;;;4944535;29;20453;-76
2021/08/04 05:50:28;;;;;;;564.60;405.20;;;;;;;;;;4944198;29;20023;-76
2021/08/04 05:52:54;;;;;;;556.88;399.80;;;;;;;;;;4947793;28;20444;-75
2021/08/04 05:55:20;;;;;;;567.38;408.08;;;;;;;;;;4946570;29;20441;-74
2021/08/04 05:57:46;;;;;;;587.78;420.25;;;;;;;;;;4946547;29;20325;-74
2021/08/04 06:00:13;;;;;;;595.88;436.23;;;;;;;;;;4944356;29;20382;-77
2021/08/04 06:02:39;;;;;;;600.97;430.20;;;;;;;;;;4946991;28;20057;-74
2021/08/04 06:05:05;;;;;;;634.80;464.85;;;;;;;;;;4947227;28;20062;-75
2021/08/04 06:07:31;;;;;;;553.85;409.48;;;;;;;;;;4946097;29;20031;-75
2021/08/04 06:09:57;;;;;;;570.97;423.48;;;;;;;;;;4944583;29;20260;-76
2021/08/04 06:12:23;;;;;;;592.75;434.92;;;;;;;;;;4948409;28;20070;-76
2021/08/04 06:14:49;;;;;;;614.63;454.63;;;;;;;;;;4947939;28;20019;-75
2021/08/04 06:17:15;;;;;;;576.05;428.65;;;;;;;;;;4946660;28;20553;-75
2021/08/04 06:19:41;;;;;;;627.53;465.33;;;;;;;;;;4946529;29;20373;-75
2021/08/04 06:22:07;;;;;;;661.50;508.55;;;;;;;;;;4944697;29;20040;-75
2021/08/04 06:24:34;;;;;;;553.47;410.45;;;;;;;;;;4930999;29;20080;-75
2021/08/04 06:27:00;;;;;;;560.35;421.27;;;;;;;;;;4945186;29;20093;-74
2021/08/04 06:29:26;;;;;;;560.97;417.50;;;;;;;;;;4934918;28;20893;-75
2021/08/04 06:31:52;;;;;;;566.25;428.70;;;;;;;;;;4945707;28;20133;-76
2021/08/04 06:34:18;;;;;;;578.63;437.27;;;;;;;;;;4943448;28;20024;-75
2021/08/04 06:36:44;;;;;;;572.25;438.98;;;;;;;;;;4944466;28;20035;-79
2021/08/04 06:39:10;;;;;;;572.75;444.23;;;;;;;;;;4942527;28;20114;-74
2021/08/04 06:41:36;;;;;;;593.22;461.25;;;;;;;;;;4942810;28;20477;-75
2021/08/04 06:44:02;;;;;;;582.22;456.52;;;;;;;;;;4942390;28;20051;-75
2021/08/04 06:46:34;;;;;;;589.88;455.70;;;;;;;;;;4940718;28;20132;-76
2021/08/04 06:49:01;;;;;;;594.00;461.77;;;;;;;;;;4939411;29;20630;-75
2021/08/04 06:51:27;;;;;;;585.33;462.10;;;;;;;;;;4926037;29;20341;-75
2021/08/04 06:53:54;;;;;;;599.80;472.13;;;;;;;;;;4941582;29;20184;-75
2021/08/04 06:56:20;;;;;;;602.25;474.40;;;;;;;;;;4940819;29;20069;-75
2021/08/04 06:58:46;;;;;;;600.17;476.45;;;;;;;;;;4943321;29;20035;-75
2021/08/04 07:01:12;;;;;;;604.13;481.90;;;;;;;;;;4941880;28;20055;-76
2021/08/04 07:03:38;;;;;;;591.75;463.50;;;;;;;;;;4943217;28;20084;-77
2021/08/04 07:06:06;;;;;;;590.03;460.67;;;;;;;;;;4944749;28;20076;-76
2021/08/04 07:08:32;;;;;;;598.03;469.63;;;;;;;;;;4943669;29;20142;-76
2021/08/04 07:10:58;;;;;;;591.95;470.45;;;;;;;;;;4945160;29;20023;-75
2021/08/04 07:13:24;;;;;;;595.47;474.52;;;;;;;;;;4944220;29;20178;-75
2021/08/04 07:15:51;;;;;;;598.13;476.00;;;;;;;;;;4945900;28;20023;-74
2021/08/04 07:18:16;;;;;;;609.83;485.73;;;;;;;;;;4946574;29;20037;-75
2021/08/04 07:20:43;;;;;;;618.25;504.20;;;;;;;;;;4930519;28;20641;-76
2021/08/04 07:23:09;;;;;;;599.55;486.85;;;;;;;;;;4946060;28;20043;-75
2021/08/04 07:25:35;;;;;;;596.90;466.33;;;;;;;;;;4952814;28;20032;-76
2021/08/04 07:28:01;;;;;;;577.85;463.42;;;;;;;;;;4944209;28;20547;-76
2021/08/04 07:37:04;;;;;;;;;;;;;;;;;;;;;
2021/08/04 07:39:56;;;;;;;580.03;473.23;;;;;;;;;;4954521;29;20110;-87
2021/08/04 07:42:26;;;;;;;587.72;482.77;;;;;;;;;;4946260;28;20048;-78
2021/08/04 07:44:52;;;;;;;597.88;492.35;;;;;;;;;;4944592;28;20087;-85
2021/08/04 07:47:23;;;;;;;583.05;478.02;;;;;;;;;;4948506;28;20063;-86
2021/08/04 07:54:17;;;;;;;;;;;;;;;;;;;;;
2021/08/04 08:19:10;;;;;;;585.25;506.67;;;;;;;;;;4942483;23;20119;-81
2021/08/04 08:21:36;;;;;;;583.47;507.80;;;;;;;;;;4985622;28;20035;-78
2021/08/04 08:24:02;;;;;;;578.28;500.38;;;;;;;;;;4973867;28;20674;-78
2021/08/04 08:26:28;;;;;;;583.17;510.88;;;;;;;;;;4967686;28;20026;-79
2021/08/04 08:29:00;;;;;;;584.20;507.45;;;;;;;;;;4981419;28;20641;-77
2021/08/04 08:31:26;;;;;;;583.47;511.98;;;;;;;;;;4971238;28;20023;-76
2021/08/04 08:33:52;;;;;;;581.08;514.17;;;;;;;;;;4982504;28;20027;-79
2021/08/04 08:36:18;;;;;;;582.53;515.38;;;;;;;;;;4981916;28;20027;-79
2021/08/04 08:38:44;;;;;;;581.88;517.33;;;;;;;;;;4991710;28;20053;-81
2021/08/04 08:41:30;;;;;;;590.85;525.92;;;;;;;;;;4968546;28;20037;-81
2021/08/04 08:43:56;;;;;;;596.05;530.63;;;;;;;;;;4990151;28;20042;-83
2021/08/04 08:46:25;;;;;;;586.50;521.60;;;;;;;;;;4971491;28;20032;-79
2021/08/04 08:48:51;;;;;;;423.70;372.90;;;;;;;;;;4996422;28;20038;-77
2021/08/04 08:51:18;;;;;;;580.05;514.50;;;;;;;;;;4970908;28;20258;-82
2021/08/04 08:53:47;;;;;;;586.47;521.95;;;;;;;;;;4971532;28;20058;-77
2021/08/04 08:56:18;;;;;;;593.72;528.88;;;;;;;;;;4968792;28;20064;-77
2021/08/04 08:58:44;;;;;;;587.50;522.97;;;;;;;;;;4979656;28;20019;-76
2021/08/04 09:01:10;;;;;;;596.78;531.78;;;;;;;;;;4980838;28;20026;-76
2021/08/04 09:03:36;;;;;;;594.08;529.35;;;;;;;;;;4987471;28;20411;-81
2021/08/04 09:06:04;;;;;;;600.08;535.60;;;;;;;;;;5011915;28;20026;-74
2021/08/04 09:08:32;;;;;;;598.55;534.05;;;;;;;;;;5008178;28;20027;-77
2021/08/04 09:11:08;;;;;;;593.22;528.95;;;;;;;;;;4989543;28;20094;-77
2021/08/04 09:13:35;;;;;;;591.80;527.30;;;;;;;;;;4964384;28;20486;-75
2021/08/04 09:16:07;;;;;;;592.75;528.45;;;;;;;;;;4959280;28;20663;-80
2021/08/04 09:18:40;;;;;;;601.03;535.85;;;;;;;;;;4953077;28;20375;-81
2021/08/04 09:21:06;;;;;;;593.97;529.83;;;;;;;;;;4966894;28;20102;-77
2021/08/04 09:23:32;;;;;;;595.63;531.40;;;;;;;;;;4974007;28;20022;-78
2021/08/04 09:26:02;;;;;;;610.67;545.80;;;;;;;;;;4974757;28;20045;-82
2021/08/04 09:28:32;;;;;;;609.28;544.72;;;;;;;;;;4966432;28;20068;-78
2021/08/04 09:31:01;;;;;;;609.72;545.08;;;;;;;;;;4942072;28;20031;-79
2021/08/04 09:33:33;;;;;;;633.08;567.75;;;;;;;;;;4953808;28;20034;-76
2021/08/04 09:35:59;;;;;;;640.15;575.03;;;;;;;;;;4961575;28;20026;-78
2021/08/04 09:38:26;;;;;;;663.67;597.95;;;;;;;;;;4963659;28;20030;-78
2021/08/04 09:47:13;;;;;;;663.65;598.70;;;;;;;;;;4968426;28;20065;-76
2021/08/04 09:49:53;;;;;;;682.53;616.92;;;;;;;;;;4959110;28;20031;-82
2021/08/04 09:52:19;;;;;;;687.95;622.22;;;;;;;;;;4961764;28;20041;-78
2021/08/04 09:54:45;;;;;;;685.70;620.33;;;;;;;;;;4976459;28;20663;-77
2021/08/04 09:57:35;;;;;;;696.47;630.70;;;;;;;;;;4955160;28;20026;-79
2021/08/04 10:00:06;;;;;;;682.72;617.72;;;;;;;;;;4961078;28;20156;-77
2021/08/04 10:02:33;;;;;;;698.55;632.78;;;;;;;;;;4957282;28;20027;-78
2021/08/04 10:05:17;;;;;;;686.72;621.63;;;;;;;;;;4973935;28;20015;-76
2021/08/04 10:10:50;;;;;;;665.42;600.75;;;;;;;;;;4968343;28;20501;-76
2021/08/04 10:13:18;;;;;;;676.00;610.70;;;;;;;;;;4952925;28;20118;-77
2021/08/04 10:15:47;;;;;;;668.38;603.33;;;;;;;;;;4968536;28;20391;-78
2021/08/04 10:18:24;;;;;;;684.22;618.58;;;;;;;;;;4959732;28;20394;-76
2021/08/04 10:20:53;;;;;;;689.90;624.78;;;;;;;;;;4951618;28;20555;-80
2021/08/04 10:23:19;;;;;;;726.80;660.78;;;;;;;;;;4950715;28;20849;-77
2021/08/04 10:25:47;;;;;;;724.35;658.70;;;;;;;;;;4966810;28;20076;-76
2021/08/04 10:28:13;;;;;;;692.85;628.05;;;;;;;;;;4952913;28;20027;-79
2021/08/04 10:30:39;;;;;;;683.70;618.88;;;;;;;;;;4952634;28;20026;-76
2021/08/04 10:33:07;;;;;;;658.03;593.67;;;;;;;;;;4956460;28;20041;-79
2021/08/04 10:35:36;;;;;;;633.65;569.83;;;;;;;;;;4970361;28;20725;-80
2021/08/04 10:38:02;;;;;;;616.47;552.22;;;;;;;;;;4952394;28;20114;-80
2021/08/04 10:40:28;;;;;;;607.80;544.20;;;;;;;;;;4972525;28;20038;-81
2021/08/04 10:42:57;;;;;;;610.22;546.35;;;;;;;;;;4972782;28;20062;-77
2021/08/04 10:45:23;;;;;;;619.80;555.72;;;;;;;;;;4961596;28;20100;-74
2021/08/04 10:47:50;;;;;;;643.00;578.78;;;;;;;;;;4952405;28;20078;-76
2021/08/04 10:50:16;;;;;;;664.85;600.42;;;;;;;;;;4950250;28;20027;-77
2021/08/04 10:53:13;;;;;;;692.92;628.10;;;;;;;;;;4966368;28;20019;-77
2021/08/04 10:55:57;;;;;;;711.78;646.58;;;;;;;;;;4942168;28;20119;-77
2021/08/04 10:58:24;;;;;;;726.47;661.05;;;;;;;;;;4974470;28;20390;-77
2021/08/04 11:00:50;;;;;;;733.72;668.13;;;;;;;;;;4955423;28;20023;-76
2021/08/04 11:03:35;;;;;;;723.45;658.03;;;;;;;;;;4952362;28;20502;-75
2021/08/04 11:06:09;;;;;;;710.60;645.50;;;;;;;;;;4968957;28;20029;-77
2021/08/04 11:08:35;;;;;;;719.17;653.67;;;;;;;;;;4972222;28;20023;-76
2021/08/04 11:11:01;;;;;;;704.53;639.50;;;;;;;;;;4948832;28;20030;-77
2021/08/04 11:13:49;;;;;;;683.65;618.83;;;;;;;;;;4953190;28;20035;-76
2021/08/04 11:16:47;;;;;;;680.08;615.00;;;;;;;;;;4964157;28;20115;-79
2021/08/04 11:19:13;;;;;;;697.33;632.25;;;;;;;;;;4960744;28;20074;-76
2021/08/04 11:21:40;;;;;;;684.03;619.38;;;;;;;;;;4959768;28;20474;-77
2021/08/04 11:24:11;;;;;;;706.47;641.42;;;;;;;;;;4972924;28;20097;-78
2021/08/04 11:26:38;;;;;;;688.90;624.17;;;;;;;;;;4973133;28;20030;-77
2021/08/04 11:29:08;;;;;;;704.45;639.28;;;;;;;;;;4971341;28;20035;-82
2021/08/04 11:31:34;;;;;;;728.53;663.05;;;;;;;;;;4959283;28;20070;-77
2021/08/04 11:34:24;;;;;;;739.40;673.83;;;;;;;;;;4950871;28;20066;-79
2021/08/04 11:36:57;;;;;;;745.22;679.63;;;;;;;;;;4947778;28;20065;-78
2021/08/04 11:39:23;;;;;;;773.15;706.67;;;;;;;;;;4952841;28;20027;-76
2021/08/04 11:41:50;;;;;;;788.83;722.03;;;;;;;;;;4945982;28;20466;-79
2021/08/04 11:44:18;;;;;;;782.65;716.10;;;;;;;;;;4971705;28;20364;-77
2021/08/04 11:47:18;;;;;;;769.30;703.13;;;;;;;;;;4958582;28;20027;-76
2021/08/04 11:49:46;;;;;;;740.95;675.10;;;;;;;;;;4962656;28;20038;-77
2021/08/04 11:52:16;;;;;;;712.25;647.03;;;;;;;;;;4955333;28;20486;-78
2021/08/04 11:54:48;;;;;;;688.33;623.63;;;;;;;;;;4946111;28;20019;-80
2021/08/04 11:57:28;;;;;;;682.03;617.17;;;;;;;;;;4970575;28;20031;-81
2021/08/04 12:00:17;;;;;;;659.85;595.38;;;;;;;;;;4962064;28;20097;-78
2021/08/04 12:02:43;;;;;;;647.85;583.55;;;;;;;;;;4959795;28;20043;-77
2021/08/04 12:05:10;;;;;;;641.83;577.75;;;;;;;;;;4959378;28;20033;-77
2021/08/04 12:07:55;;;;;;;641.67;577.25;;;;;;;;;;4954106;28;20348;-77
2021/08/04 12:10:21;;;;;;;636.97;572.47;;;;;;;;;;4950830;28;20491;-77
2021/08/04 12:12:52;;;;;;;641.08;575.55;;;;;;;;;;4951859;28;20555;-78
2021/08/04 12:15:20;;;;;;;630.05;565.85;;;;;;;;;;4953605;28;20078;-78
2021/08/04 12:17:48;;;;;;;635.80;571.53;;;;;;;;;;4951531;28;20038;-78
2021/08/04 12:20:19;;;;;;;626.80;562.80;;;;;;;;;;4964828;28;20055;-77
2021/08/04 12:22:47;;;;;;;637.40;572.83;;;;;;;;;;4953500;28;20046;-76
2021/08/04 12:25:17;;;;;;;627.92;563.55;;;;;;;;;;4968149;28;20027;-76
2021/08/04 12:27:45;;;;;;;629.55;564.92;;;;;;;;;;4967991;28;20085;-77
2021/08/04 12:30:26;;;;;;;618.28;554.25;;;;;;;;;;4984335;28;20085;-77
2021/08/04 12:33:00;;;;;;;627.35;563.15;;;;;;;;;;4952275;28;20049;-77
2021/08/04 12:35:37;;;;;;;619.88;555.88;;;;;;;;;;4943158;28;20400;-77
2021/08/04 12:38:04;;;;;;;630.63;566.22;;;;;;;;;;4962745;28;20460;-77
2021/08/04 12:40:30;;;;;;;629.75;565.42;;;;;;;;;;4953601;28;20027;-78
2021/08/04 12:42:56;;;;;;;645.33;580.45;;;;;;;;;;4957952;28;20130;-78
2021/08/04 12:45:24;;;;;;;638.38;573.80;;;;;;;;;;4944224;28;20482;-76
2021/08/04 12:50:57;;;;;;;628.55;564.35;;;;;;;;;;4960764;28;20081;-77
2021/08/04 12:53:23;;;;;;;;;;;;;;;;;;4962952;28;20059;-77
2021/08/04 12:56:16;;;;;;;614.50;550.45;;;;;;;;;;4937536;28;19976;-77
2021/08/04 12:58:55;;;;;;;627.85;563.67;;;;;;;;;;4958015;28;20088;-77
2021/08/04 13:01:22;;;;;;;632.88;568.72;;;;;;;;;;4961140;28;20100;-77
2021/08/04 13:03:50;;;;;;;635.80;571.58;;;;;;;;;;4946549;28;20026;-78
2021/08/04 13:06:17;;;;;;;625.35;561.40;;;;;;;;;;4982230;28;20031;-79
2021/08/04 13:08:43;;;;;;;630.53;566.53;;;;;;;;;;4954483;28;20520;-77
2021/08/04 13:11:26;;;;;;;632.90;568.72;;;;;;;;;;4951487;28;20130;-81
2021/08/04 13:14:00;;;;;;;632.35;568.10;;;;;;;;;;4950362;28;20023;-82
2021/08/04 13:16:32;;;;;;;622.65;558.75;;;;;;;;;;4969348;28;20725;-82
2021/08/04 13:22:17;;;;;;;602.55;538.72;;;;;;;;;;4980209;28;20026;-82
2021/08/04 13:24:44;;;;;;;603.13;539.50;;;;;;;;;;4958268;28;20039;-84
2021/08/04 13:27:30;;;;;;;602.53;538.83;;;;;;;;;;4955297;28;20088;-90
2021/08/04 13:30:15;;;;;;;593.75;530.35;;;;;;;;;;4953849;28;20028;-84
2021/08/04 13:32:45;;;;;;;594.58;530.92;;;;;;;;;;4959272;28;20029;-86
2021/08/04 13:35:11;;;;;;;587.75;524.30;;;;;;;;;;4986126;28;20023;-86
2021/08/04 13:37:37;;;;;;;596.72;532.90;;;;;;;;;;4996840;28;20029;-85
2021/08/04 13:40:04;;;;;;;592.15;528.80;;;;;;;;;;4950202;28;20035;-84
2021/08/04 13:42:33;;;;;;;596.58;532.72;;;;;;;;;;4948454;28;20070;-85
2021/08/04 13:45:18;;;;;;;585.92;522.65;;;;;;;;;;4949739;28;20041;-84
2021/08/04 13:47:45;;;;;;;585.20;521.72;;;;;;;;;;4956613;28;20042;-86
2021/08/04 13:50:12;;;;;;;592.58;528.95;;;;;;;;;;4939801;28;20027;-90
2021/08/04 13:52:38;;;;;;;591.97;528.35;;;;;;;;;;4955894;28;20019;-86
2021/08/04 13:55:05;;;;;;;590.13;526.75;;;;;;;;;;4967254;28;20026;-82
2021/08/04 13:57:43;;;;;;;593.17;529.75;;;;;;;;;;4964618;28;20065;-89
2021/08/04 14:00:13;;;;;;;584.22;521.10;;;;;;;;;;4955373;28;20485;-91
2021/08/04 14:02:39;;;;;;;587.78;524.20;;;;;;;;;;4991551;28;20041;-89
2021/08/04 14:05:09;;;;;;;576.85;513.92;;;;;;;;;;4969292;28;20042;-84
2021/08/04 14:07:35;;;;;;;616.85;549.88;;;;;;;;;;4951320;28;20019;-84
2021/08/04 14:10:20;;;;;;;619.67;552.95;;;;;;;;;;4947549;28;20774;-84
2021/08/04 14:12:46;;;;;;;621.92;555.15;;;;;;;;;;4953775;28;20109;-84
2021/08/04 14:15:14;;;;;;;616.78;550.28;;;;;;;;;;4949622;28;20035;-82
2021/08/04 14:17:40;;;;;;;619.55;553.03;;;;;;;;;;4940745;28;20030;-83
2021/08/04 14:20:07;;;;;;;616.78;550.40;;;;;;;;;;4952242;28;20047;-83
2021/08/04 14:22:39;;;;;;;629.08;562.38;;;;;;;;;;4963533;28;20053;-81
2021/08/04 14:25:06;;;;;;;627.75;561.03;;;;;;;;;;4953676;28;20034;-82
2021/08/04 14:27:32;;;;;;;638.92;572.10;;;;;;;;;;4942872;28;20042;-84
2021/08/04 14:29:58;;;;;;;646.05;579.25;;;;;;;;;;4947724;28;20042;-86
2021/08/04 14:32:24;;;;;;;654.30;587.35;;;;;;;;;;4959236;28;20747;-85
2021/08/04 14:34:56;;;;;;;650.95;584.33;;;;;;;;;;4956825;28;20042;-85
2021/08/04 14:37:22;;;;;;;663.17;595.58;;;;;;;;;;4970895;28;20039;-85
2021/08/04 14:39:48;;;;;;;659.30;592.25;;;;;;;;;;4963067;28;21715;-85
2021/08/04 14:42:15;;;;;;;659.28;592.25;;;;;;;;;;4972389;28;20114;-87
2021/08/04 14:44:41;;;;;;;648.25;581.45;;;;;;;;;;4953424;28;20027;-80
2021/08/04 14:47:13;;;;;;;638.78;572.15;;;;;;;;;;4952979;28;20093;-83
2021/08/04 14:49:41;;;;;;;623.95;557.63;;;;;;;;;;4953028;28;20031;-80